Time;durP1;ratioP1;P1;durP2;ratioP2;P2;SDS_P1;SDS_P2;PMS_P1;PMS_P2;Temp;Humidity;BMP_temperature;BMP_pressure;BME280_temperature;BME280_humidity;BME280_pressure;Samples;Min_cycle;Max_cycle;Signal;HPM_P1;HPM_P2
2021/03/10 00:01:04;;;;;;;12.02;3.60;;;;;;;4.63;100.00;99351.13;5064063;28;20059;-82
2021/03/10 00:04:08;;;;;;;9.63;3.10;;;;;;;4.58;100.00;99357.97;5062377;28;20059;-82
2021/03/10 00:07:11;;;;;;;10.88;3.58;;;;;;;4.53;100.00;99356.53;5063354;28;20060;-85
2021/03/10 00:10:15;;;;;;;11.23;3.20;;;;;;;4.48;100.00;99373.66;5063734;28;20040;-83
2021/03/10 00:13:18;;;;;;;12.50;3.35;;;;;;;4.46;100.00;99384.34;5063867;28;20051;-84
2021/03/10 00:16:22;;;;;;;7.25;3.28;;;;;;;4.42;100.00;99367.16;5075324;28;20103;-84
2021/03/10 00:19:26;;;;;;;8.68;4.15;;;;;;;4.39;100.00;99348.78;5062819;28;20047;-83
2021/03/10 00:22:30;;;;;;;7.85;3.72;;;;;;;4.39;100.00;99340.50;5062730;28;20044;-81
2021/03/10 00:25:34;;;;;;;11.85;3.60;;;;;;;4.35;100.00;99345.34;5075259;28;20047;-84
2021/03/10 00:28:38;;;;;;;7.10;3.63;;;;;;;4.32;100.00;99326.19;5062936;28;20063;-83
2021/03/10 00:31:41;;;;;;;7.20;3.33;;;;;;;4.28;100.00;99326.31;5062658;28;20051;-84
2021/03/10 00:34:45;;;;;;;8.93;4.30;;;;;;;4.28;100.00;99322.78;5062559;28;20393;-84
2021/03/10 00:37:49;;;;;;;7.93;3.30;;;;;;;4.24;100.00;99324.91;5062955;28;20048;-85
2021/03/10 00:40:52;;;;;;;7.70;2.85;;;;;;;4.20;100.00;99305.72;5062824;28;20051;-85
2021/03/10 00:43:55;;;;;;;12.40;5.03;;;;;;;4.22;100.00;99308.78;5075323;28;20048;-87
2021/03/10 00:46:58;;;;;;;14.35;4.28;;;;;;;4.19;100.00;99301.44;5062313;28;20047;-85
2021/03/10 00:50:02;;;;;;;6.55;2.25;;;;;;;4.19;100.00;99284.91;5075698;28;20044;-86
2021/03/10 00:53:06;;;;;;;12.70;3.42;;;;;;;4.18;100.00;99290.88;5062583;28;20056;-86
2021/03/10 00:56:09;;;;;;;18.08;4.68;;;;;;;4.19;100.00;99286.88;5062646;28;20401;-85
2021/03/10 00:59:13;;;;;;;8.38;3.85;;;;;;;4.16;100.00;99277.50;5075236;28;20052;-85
2021/03/10 01:02:16;;;;;;;19.42;5.78;;;;;;;4.14;100.00;99274.44;5062862;28;20056;-85
2021/03/10 01:06:29;;;;;;;5.60;3.20;;;;;;;4.11;100.00;99263.53;5062731;28;20095;-85
2021/03/10 01:09:33;;;;;;;7.10;3.50;;;;;;;4.11;100.00;99253.31;5068240;28;20043;-86
2021/03/10 01:12:37;;;;;;;7.82;3.28;;;;;;;4.12;100.00;99241.03;5076299;28;20043;-87
2021/03/10 01:15:41;;;;;;;4.95;4.03;;;;;;;4.11;100.00;99258.81;5063147;28;20039;-87
2021/03/10 01:18:45;;;;;;;3.88;2.40;;;;;;;4.09;100.00;99241.97;5063125;28;20087;-85
2021/03/10 01:21:48;;;;;;;7.28;4.00;;;;;;;4.10;100.00;99235.22;5062477;28;20385;-85
2021/03/10 01:24:51;;;;;;;25.50;3.72;;;;;;;4.08;100.00;99232.13;5062652;28;20048;-87
2021/03/10 01:27:54;;;;;;;5.97;2.60;;;;;;;4.10;100.00;99217.91;5075114;28;20043;-87
2021/03/10 01:30:58;;;;;;;6.93;3.55;;;;;;;4.08;100.00;99214.84;5075006;28;20053;-87
2021/03/10 01:34:01;;;;;;;13.90;4.70;;;;;;;4.06;100.00;99214.50;5062430;28;20512;-88
2021/03/10 01:37:04;;;;;;;6.47;3.67;;;;;;;4.05;100.00;99210.97;5062219;28;20515;-88
2021/03/10 01:40:13;;;;;;;5.65;3.35;;;;;;;4.05;100.00;99219.25;5063113;28;20401;-88
2021/03/10 01:43:17;;;;;;;8.02;3.50;;;;;;;4.02;100.00;99209.13;5065131;28;20063;-88
2021/03/10 01:46:21;;;;;;;9.25;4.20;;;;;;;4.03;100.00;99207.91;5065809;28;20043;-87
2021/03/10 01:49:24;;;;;;;6.32;2.47;;;;;;;4.09;100.00;99197.09;5065446;28;20055;-88
2021/03/10 01:52:28;;;;;;;15.40;3.97;;;;;;;4.07;100.00;99185.75;5067653;28;20055;-87
2021/03/10 01:55:32;;;;;;;8.07;3.15;;;;;;;4.09;100.00;99178.59;5061913;28;20040;-86
2021/03/10 01:58:37;;;;;;;5.50;3.05;;;;;;;4.12;100.00;99172.16;5062784;28;20040;-87
2021/03/10 02:01:41;;;;;;;8.32;3.25;;;;;;;4.15;100.00;99178.78;5063635;28;20056;-87
2021/03/10 02:04:45;;;;;;;6.93;3.35;;;;;;;4.19;100.00;99168.38;5074352;28;20409;-89
2021/03/10 02:08:19;;;;;;;7.97;2.70;;;;;;;4.17;100.00;99163.34;5061652;28;20039;-89
2021/03/10 02:11:28;;;;;;;8.88;3.65;;;;;;;4.17;100.00;99152.31;5062024;28;20043;-88
2021/03/10 02:14:54;;;;;;;8.45;3.85;;;;;;;4.20;100.00;99140.38;5062942;28;20068;-88
2021/03/10 02:18:04;;;;;;;3.47;2.33;;;;;;;4.23;100.00;99133.19;5073783;28;20060;-89
2021/03/10 02:21:19;;;;;;;10.65;3.72;;;;;;;4.21;100.00;99130.91;5061909;28;20047;-88
2021/03/10 02:24:56;;;;;;;7.15;3.90;;;;;;;4.23;100.00;99122.19;5061656;28;20051;-88
2021/03/10 02:28:02;;;;;;;7.93;3.22;;;;;;;4.27;100.00;99112.56;5061523;28;20047;-89
2021/03/10 02:31:07;;;;;;;5.82;3.55;;;;;;;4.28;100.00;99105.06;5061642;28;20047;-89
2021/03/10 02:34:12;;;;;;;5.60;2.60;;;;;;;4.28;100.00;99083.03;5073873;28;20044;-91
2021/03/10 02:37:17;;;;;;;3.35;3.05;;;;;;;4.24;100.00;99091.44;5061445;28;20043;-89
2021/03/10 02:40:24;;;;;;;6.40;3.85;;;;;;;4.28;100.00;99064.50;5061836;28;20515;-89
2021/03/10 02:43:29;;;;;;;5.32;3.13;;;;;;;4.31;100.00;99041.53;5073719;28;20047;-90
2021/03/10 02:46:32;;;;;;;8.93;2.88;;;;;;;4.36;100.00;99049.22;5073332;28;20047;-89
2021/03/10 02:49:37;;;;;;;9.75;4.38;;;;;;;4.39;100.00;99031.78;5063070;28;20044;-89
2021/03/10 02:52:41;;;;;;;3.47;2.00;;;;;;;4.39;100.00;99008.97;5061186;28;20047;-88
2021/03/10 02:55:45;;;;;;;9.60;3.97;;;;;;;4.40;100.00;98999.47;5061007;28;20055;-88
2021/03/10 02:58:48;;;;;;;7.82;3.03;;;;;;;4.41;100.00;98988.00;5060864;28;20052;-88
2021/03/10 03:01:54;;;;;;;6.72;2.60;;;;;;;4.41;100.00;98990.75;5072928;28;20056;-89
2021/03/10 03:04:58;;;;;;;6.25;3.10;;;;;;;4.44;100.00;98984.31;5061183;28;20052;-89
2021/03/10 03:08:04;;;;;;;6.03;2.30;;;;;;;4.47;100.00;98977.13;5060727;28;20432;-87
2021/03/10 03:11:08;;;;;;;4.90;2.88;;;;;;;4.46;100.00;98976.34;5060631;28;20390;-87
2021/03/10 03:14:12;;;;;;;3.90;3.08;;;;;;;4.48;100.00;98968.41;5061925;28;20051;-88
2021/03/10 03:17:15;;;;;;;9.23;3.92;;;;;;;4.53;100.00;98983.56;5061557;28;20055;-85
2021/03/10 03:20:20;;;;;;;2.75;2.22;;;;;;;4.53;100.00;98976.06;5061064;28;20044;-85
2021/03/10 03:23:25;;;;;;;8.77;2.47;;;;;;;4.53;100.00;98978.84;5060949;28;20063;-87
2021/03/10 03:26:29;;;;;;;3.63;1.73;;;;;;;4.53;100.00;98973.31;5060709;28;20500;-85
2021/03/10 03:29:33;;;;;;;3.35;2.47;;;;;;;4.57;100.00;98973.94;5061154;28;20051;-85
2021/03/10 03:32:38;;;;;;;2.75;2.22;;;;;;;4.57;100.00;98965.66;5076418;28;20036;-87
2021/03/10 03:35:44;;;;;;;2.90;2.65;;;;;;;4.56;100.00;98953.13;5064613;28;20051;-86
2021/03/10 03:38:47;;;;;;;5.05;2.60;;;;;;;4.59;100.00;98960.47;5064318;28;20398;-86
2021/03/10 03:41:52;;;;;;;5.28;2.20;;;;;;;4.61;100.00;98951.75;5064328;28;20051;-87
2021/03/10 03:45:19;;;;;;;6.60;2.15;;;;;;;4.60;100.00;98950.97;5064370;28;20504;-88
2021/03/10 03:48:22;;;;;;;7.38;2.97;;;;;;;4.60;100.00;98948.22;5076612;28;20858;-87
2021/03/10 03:51:28;;;;;;;1.65;1.55;;;;;;;4.60;100.00;98934.44;5063829;28;20039;-86
2021/03/10 03:54:31;;;;;;;12.80;4.03;;;;;;;4.60;100.00;98934.44;5063952;28;20048;-87
2021/03/10 03:57:36;;;;;;;3.15;1.27;;;;;;;4.63;100.00;98930.00;5064227;28;20044;-87
2021/03/10 04:00:39;;;;;;;8.18;3.28;;;;;;;4.63;100.00;98925.22;5076087;28;20051;-88
2021/03/10 04:03:45;;;;;;;21.35;3.72;;;;;;;4.63;100.00;98915.44;5064004;28;20119;-87
2021/03/10 04:06:49;;;;;;;5.97;1.83;;;;;;;4.67;100.00;98916.06;5063811;28;20056;-91
2021/03/10 04:09:52;;;;;;;3.42;2.03;;;;;;;4.66;100.00;98911.78;5065221;28;20051;-91
2021/03/10 04:12:57;;;;;;;7.60;2.58;;;;;;;4.63;100.00;98913.44;5064425;28;20040;-93
2021/03/10 04:16:01;;;;;;;1.27;1.02;;;;;;;4.63;100.00;98914.19;5064559;28;20087;-92
2021/03/10 04:19:05;;;;;;;6.35;1.75;;;;;;;4.62;100.00;98884.34;5064118;28;20060;-90
2021/03/10 04:22:09;;;;;;;1.67;1.33;;;;;;;4.63;100.00;98896.13;5063954;28;20048;-91
2021/03/10 04:25:13;;;;;;;4.45;1.65;;;;;;;4.65;100.00;98882.66;5076770;28;20704;-92
2021/03/10 04:28:16;;;;;;;6.97;2.85;;;;;;;4.66;100.00;98889.72;5065420;28;20051;-91
2021/03/10 04:31:20;;;;;;;2.17;1.98;;;;;;;4.68;100.00;98881.75;5064016;28;20039;-91
2021/03/10 04:34:23;;;;;;;2.35;2.15;;;;;;;4.69;100.00;98883.25;5063810;28;20051;-91
2021/03/10 04:37:27;;;;;;;5.78;2.33;;;;;;;4.69;100.00;98877.75;5063504;28;20508;-88
2021/03/10 04:40:31;;;;;;;5.93;2.90;;;;;;;4.68;100.00;98870.72;5075487;28;20047;-86
2021/03/10 04:43:34;;;;;;;4.63;2.47;;;;;;;4.72;100.00;98872.06;5063346;28;20050;-87
2021/03/10 04:46:37;;;;;;;3.70;1.95;;;;;;;4.73;100.00;98867.31;5063271;28;20047;-89
2021/03/10 04:49:41;;;;;;;4.55;1.80;;;;;;;4.72;100.00;98871.31;5063048;28;20044;-87
2021/03/10 04:52:44;;;;;;;7.80;1.67;;;;;;;4.73;100.00;98864.56;5062836;28;20039;-88
2021/03/10 04:55:48;;;;;;;17.05;1.98;;;;;;;4.73;100.00;98864.56;5075304;28;20052;-87
2021/03/10 04:58:51;;;;;;;3.17;1.92;;;;;;;4.73;100.00;98872.84;5067355;28;20055;-87
2021/03/10 05:01:55;;;;;;;2.15;1.67;;;;;;;4.72;100.00;98855.53;5082878;28;20043;-87
2021/03/10 05:04:58;;;;;;;8.13;2.38;;;;;;;4.73;100.00;98850.78;5062145;28;20055;-87
2021/03/10 05:08:02;;;;;;;2.08;1.95;;;;;;;4.73;100.00;98845.25;5062502;28;20051;-88
2021/03/10 05:11:05;;;;;;;1.88;1.20;;;;;;;4.75;100.00;98838.06;5062693;28;20035;-89
2021/03/10 05:14:09;;;;;;;7.20;2.35;;;;;;;4.76;100.00;98828.59;5074796;28;20044;-89
2021/03/10 05:17:12;;;;;;;1.85;1.52;;;;;;;4.78;100.00;98831.63;5062265;28;20060;-88
2021/03/10 05:20:15;;;;;;;2.35;1.65;;;;;;;4.79;100.00;98824.09;5062683;28;20066;-88
2021/03/10 05:23:19;;;;;;;3.10;1.70;;;;;;;4.81;100.00;98822.44;5063161;28;20060;-93
2021/03/10 05:26:22;;;;;;;4.22;2.72;;;;;;;4.82;100.00;98817.69;5062360;28;20044;-90
2021/03/10 05:29:26;;;;;;;3.85;2.00;;;;;;;4.81;100.00;98813.41;5062966;28;20048;-92
2021/03/10 05:32:29;;;;;;;2.05;1.10;;;;;;;4.82;100.00;98809.41;5063400;28;20055;-91
2021/03/10 05:35:33;;;;;;;2.88;1.73;;;;;;;4.84;100.00;98806.94;5063837;28;20048;-92
2021/03/10 05:38:36;;;;;;;4.50;2.08;;;;;;;4.84;100.00;98790.41;5060054;28;20507;-91
2021/03/10 05:41:40;;;;;;;8.15;1.85;;;;;;;4.84;100.00;98801.44;5057072;28;20102;-91
2021/03/10 05:44:48;;;;;;;4.30;1.55;;;;;;;4.85;100.00;98791.94;5051469;28;20055;-92
2021/03/10 05:47:52;;;;;;;2.67;1.83;;;;;;;4.83;100.00;98788.88;5039717;28;20043;-93
2021/03/10 05:50:56;;;;;;;5.47;1.75;;;;;;;4.84;100.00;98779.38;5034390;28;20044;-90
2021/03/10 05:54:01;;;;;;;4.22;2.10;;;;;;;4.84;100.00;98774.63;5030471;28;20716;-89
2021/03/10 05:57:05;;;;;;;6.13;2.42;;;;;;;4.86;100.00;98774.94;5031845;28;20036;-91
2021/03/10 06:00:14;;;;;;;2.67;1.52;;;;;;;4.84;100.00;98779.38;5029387;28;20343;-91
2021/03/10 06:03:18;;;;;;;0.98;0.98;;;;;;;4.86;100.00;98771.41;5041660;28;20611;-92
2021/03/10 06:06:22;;;;;;;3.97;2.00;;;;;;;4.86;100.00;98774.94;5029772;28;20039;-91
2021/03/10 06:09:26;;;;;;;1.90;1.75;;;;;;;4.85;100.00;98764.38;5028142;28;20555;-90
2021/03/10 06:12:40;;;;;;;2.15;1.35;;;;;;;4.85;100.00;98756.09;5028353;28;20056;-92
2021/03/10 06:15:44;;;;;;;5.32;1.85;;;;;;;4.84;100.00;98760.06;5023820;28;20039;-85
2021/03/10 06:18:49;;;;;;;2.65;1.60;;;;;;;4.85;100.00;98747.81;5049838;28;20725;-93
2021/03/10 06:21:53;;;;;;;1.25;1.10;;;;;;;4.84;100.00;98741.53;5035138;28;20051;-91
2021/03/10 06:25:01;;;;;;;4.13;1.77;;;;;;;4.86;100.00;98743.81;5046602;28;20043;-92
2021/03/10 06:28:05;;;;;;;16.52;4.25;;;;;;;4.88;100.00;98749.63;5046587;28;20032;-93
2021/03/10 06:31:36;;;;;;;9.55;2.35;;;;;;;4.88;100.00;98744.13;5025152;28;20306;-88
2021/03/10 06:34:50;;;;;;;11.73;2.63;;;;;;;4.90;100.00;98749.94;5023899;28;20060;-83
2021/03/10 06:38:15;;;;;;;58.00;10.77;;;;;;;4.89;100.00;98760.22;5020683;28;20264;-82
2021/03/10 06:41:39;;;;;;;8.65;3.92;;;;;;;4.88;100.00;98744.88;5020694;28;20053;-83
2021/03/10 06:44:53;;;;;;;28.08;4.22;;;;;;;4.90;100.00;98749.94;5023450;28;20040;-80
2021/03/10 06:47:56;;;;;;;11.05;3.95;;;;;;;4.88;100.00;98741.34;5022696;28;20039;-86
2021/03/10 06:51:00;;;;;;;11.15;2.85;;;;;;;4.87;100.00;98740.63;5026012;28;20697;-85
2021/03/10 06:54:14;;;;;;;7.45;2.25;;;;;;;4.89;100.00;98738.16;5030113;28;21121;-81
2021/03/10 06:57:18;;;;;;;7.28;1.83;;;;;;;4.91;100.00;98734.94;5036837;28;20048;-83
2021/03/10 07:00:23;;;;;;;5.40;2.42;;;;;;;4.90;100.00;98738.91;5020457;28;20059;-81
2021/03/10 07:03:29;;;;;;;7.75;1.58;;;;;;;4.91;100.00;98729.41;5019439;28;20055;-85
2021/03/10 07:06:33;;;;;;;1.13;1.02;;;;;;;4.92;100.00;98722.66;5035740;28;20047;-82
2021/03/10 07:09:37;;;;;;;11.50;1.65;;;;;;;4.95;100.00;98730.00;5022915;28;20404;-82
2021/03/10 07:12:42;;;;;;;4.70;2.78;;;;;;;4.99;100.00;98727.84;5023278;28;20417;-82
2021/03/10 07:15:50;;;;;;;8.85;1.27;;;;;;;5.01;100.00;98712.34;5034659;28;20056;-82
2021/03/10 07:18:54;;;;;;;1.88;1.52;;;;;;;5.03;100.00;98698.09;5023904;28;20270;-82
2021/03/10 07:22:05;;;;;;;4.43;2.08;;;;;;;5.06;100.00;98702.69;5022896;28;20131;-80
2021/03/10 07:25:29;;;;;;;1.50;1.27;;;;;;;5.12;100.00;98692.53;5036555;28;20040;-81
2021/03/10 07:28:34;;;;;;;1.02;0.70;;;;;;;5.12;100.00;98696.06;5024659;28;20659;-84
2021/03/10 07:31:38;;;;;;;8.35;1.98;;;;;;;5.12;100.00;98687.78;5024253;28;20052;-80
2021/03/10 07:34:42;;;;;;;1.25;1.15;;;;;;;5.21;100.00;98678.69;5023850;28;20446;-80
2021/03/10 07:37:53;;;;;;;7.43;1.48;;;;;;;5.26;100.00;98689.84;5024365;28;20059;-81
2021/03/10 07:41:02;;;;;;;;;;;;;;;5.31;100.00;98697.50;5022398;28;20044;-81
2021/03/10 07:44:20;;;;;;;2.25;1.90;;;;;;;5.36;100.00;98672.03;5021061;28;20423;-80
2021/03/10 07:47:24;;;;;;;4.50;1.10;;;;;;;5.39;100.00;98681.38;5040844;28;20437;-79
2021/03/10 07:50:46;;;;;;;1.65;0.82;;;;;;;5.40;100.00;98685.63;5031304;28;20658;-79
2021/03/10 07:53:49;;;;;;;1.88;1.38;;;;;;;5.45;100.00;98673.97;5023496;28;20043;-83
2021/03/10 07:57:11;;;;;;;10.00;2.13;;;;;;;5.48;100.00;98684.06;5023737;28;20043;-84
2021/03/10 08:00:14;;;;;;;;;;;;;;;5.56;100.00;98665.91;5038039;28;20040;-82
2021/03/10 08:03:32;;;;;;;4.28;1.98;;;;;;;5.62;100.00;98664.03;5021947;28;20548;-80
2021/03/10 08:06:43;;;;;;;3.97;1.42;;;;;;;5.72;100.00;98659.97;5022759;28;20063;-79
2021/03/10 08:09:51;;;;;;;2.67;0.63;;;;;;;5.77;100.00;98655.78;5022562;28;20408;-79
2021/03/10 08:12:54;;;;;;;1.00;0.95;;;;;;;5.82;100.00;98669.72;5022908;28;20047;-80
2021/03/10 08:16:03;;;;;;;0.88;0.88;;;;;;;5.89;100.00;98658.31;5022514;28;20559;-79
2021/03/10 08:19:08;;;;;;;2.40;1.13;;;;;;;5.95;100.00;98655.69;5022631;28;20567;-78
2021/03/10 08:22:15;;;;;;;1.85;0.75;;;;;;;5.96;100.00;98635.84;5022573;28;20583;-79
2021/03/10 08:25:19;;;;;;;1.75;0.88;;;;;;;5.99;100.00;98650.72;5022636;28;20197;-83
2021/03/10 08:28:23;;;;;;;4.05;1.15;;;;;;;6.03;100.00;98646.53;5023437;28;20051;-82
2021/03/10 08:31:26;;;;;;;2.28;1.27;;;;;;;6.07;100.00;98636.06;5026306;28;20571;-83
2021/03/10 08:34:33;;;;;;;1.75;1.17;;;;;;;6.10;100.00;98635.13;5022137;28;20039;-83
2021/03/10 08:37:41;;;;;;;2.38;1.02;;;;;;;6.07;100.00;98629.78;5036699;28;20055;-83
2021/03/10 08:40:45;;;;;;;1.65;1.13;;;;;;;6.05;100.00;98633.00;5024440;28;20047;-83
2021/03/10 08:44:01;;;;;;;1.35;0.70;;;;;;;6.05;100.00;98629.47;5037895;28;20658;-84
2021/03/10 08:47:10;;;;;;;0.60;0.60;;;;;;;6.08;100.00;98629.31;5037479;28;20067;-83
2021/03/10 08:50:14;;;;;;;1.45;0.40;;;;;;;6.16;100.00;98626.16;5024537;28;20044;-81
2021/03/10 08:53:17;;;;;;;4.10;0.47;;;;;;;6.18;100.00;98618.16;5024062;28;20326;-80
2021/03/10 08:56:21;;;;;;;1.90;0.93;;;;;;;6.20;100.00;98615.66;5026178;28;20044;-80
2021/03/10 08:59:34;;;;;;;5.45;0.77;;;;;;;6.21;100.00;98606.16;5025134;28;20039;-82
2021/03/10 09:02:38;;;;;;;1.85;0.32;;;;;;;6.22;100.00;98613.97;5030325;28;20052;-81
2021/03/10 09:05:43;;;;;;;1.85;0.30;;;;;;;6.22;100.00;98602.13;5037746;28;20055;-83
2021/03/10 09:08:47;;;;;;;1.52;1.10;;;;;;;6.21;100.00;98598.63;5031133;28;20035;-86
2021/03/10 09:11:52;;;;;;;9.00;1.10;;;;;;;6.22;100.00;98602.13;5031212;28;20059;-83
2021/03/10 09:14:56;;;;;;;2.53;0.75;;;;;;;6.25;100.00;98598.44;5030247;28;20099;-87
2021/03/10 09:18:07;;;;;;;1.10;0.90;;;;;;;6.33;100.00;98588.50;5022271;28;20080;-84
2021/03/10 09:21:11;;;;;;;4.40;1.85;;;;;;;6.39;100.00;98589.38;5018331;28;20842;-85
2021/03/10 09:24:14;;;;;;;3.47;1.67;;;;;;;6.43;100.00;98579.63;5020234;28;20497;-85
2021/03/10 09:27:26;;;;;;;19.98;2.10;;;;;;;6.50;100.00;98572.94;5020904;28;20040;-84
2021/03/10 09:30:33;;;;;;;5.07;1.27;;;;;;;6.57;100.00;98547.66;5022582;28;20040;-84
2021/03/10 09:33:40;;;;;;;4.53;1.85;;;;;;;6.59;100.00;98542.41;5022023;28;20303;-84
2021/03/10 09:36:43;;;;;;;8.23;1.23;;;;;;;6.61;100.00;98534.41;5015215;28;20056;-84
2021/03/10 09:39:49;;;;;;;1.27;0.80;;;;;;;6.64;100.00;98517.63;5013003;28;20044;-84
2021/03/10 09:43:03;;;;;;;3.22;0.73;;;;;;;6.67;100.00;98522.16;5014678;28;20072;-83
2021/03/10 09:46:08;;;;;;;4.05;1.58;;;;;;;6.70;100.00;98523.22;5016327;28;20056;-83
2021/03/10 09:49:12;;;;;;;2.35;0.40;;;;;;;6.81;100.00;98526.16;5017668;28;20040;-86
2021/03/10 09:52:16;;;;;;;0.73;0.73;;;;;;;6.87;100.00;98515.91;5018091;28;20051;-85
2021/03/10 09:55:22;;;;;;;4.18;1.10;;;;;;;6.93;100.00;98505.66;5016867;28;20413;-86
2021/03/10 09:58:25;;;;;;;2.80;0.73;;;;;;;7.00;100.00;98502.50;5018113;28;20063;-85
2021/03/10 10:01:30;;;;;;;0.82;0.52;;;;;;;7.02;100.00;98497.22;5019476;28;20044;-87
2021/03/10 10:04:33;;;;;;;2.60;1.33;;;;;;;7.09;100.00;98496.06;5019294;28;20052;-88
2021/03/10 10:07:37;;;;;;;0.60;0.60;;;;;;;7.19;100.00;98495.44;5014845;28;20040;-86
2021/03/10 10:10:41;;;;;;;0.50;0.35;;;;;;;7.23;100.00;98476.63;5015959;28;20052;-86
2021/03/10 10:13:47;;;;;;;2.83;0.63;;;;;;;7.29;100.00;98476.66;5022215;28;20088;-85
2021/03/10 10:16:51;;;;;;;0.90;0.20;;;;;;;7.38;100.00;98455.13;5020681;28;20059;-85
2021/03/10 10:19:54;;;;;;;0.20;0.20;;;;;;;7.46;100.00;98453.44;5024193;28;20740;-85
2021/03/10 10:22:58;;;;;;;9.38;0.38;;;;;;;7.50;100.00;98437.38;5023076;28;20420;-82
2021/03/10 10:26:02;;;;;;;1.63;0.63;;;;;;;7.57;100.00;98442.47;5026112;28;20032;-83
2021/03/10 10:29:05;;;;;;;3.05;0.98;;;;;;;7.59;100.00;98422.59;5027603;28;20529;-83
2021/03/10 10:32:11;;;;;;;1.17;0.90;;;;;;;7.63;100.00;98412.81;5030920;28;20043;-83
2021/03/10 10:35:16;;;;;;;1.60;0.45;;;;;;;7.71;100.00;98412.38;5030802;28;20486;-82
2021/03/10 10:38:20;;;;;;;2.30;0.43;;;;;;;7.80;100.00;98398.31;5029393;28;20044;-82
2021/03/10 10:41:24;;;;;;;0.10;0.00;;;;;;;7.88;100.00;98391.88;5026475;28;20347;-83
2021/03/10 10:44:27;;;;;;;0.63;0.63;;;;;;;7.84;100.00;98383.00;5025604;28;20075;-83
2021/03/10 10:47:32;;;;;;;0.63;0.20;;;;;;;7.90;100.00;98386.59;5022719;28;20032;-83
2021/03/10 10:50:35;;;;;;;0.20;0.20;;;;;;;7.85;100.00;98369.91;5025863;28;20075;-82
2021/03/10 10:53:39;;;;;;;0.30;0.30;;;;;;;7.88;100.00;98366.16;5024255;28;20516;-84
2021/03/10 10:56:43;;;;;;;1.17;0.43;;;;;;;7.84;100.00;98360.09;5023602;28;20036;-81
2021/03/10 10:59:46;;;;;;;0.75;0.32;;;;;;;7.83;100.00;98353.00;5026036;28;20250;-81
2021/03/10 11:02:50;;;;;;;0.13;0.10;;;;;;;7.84;100.00;98337.91;5024303;28;20055;-81
2021/03/10 11:05:53;;;;;;;11.50;0.30;;;;;;;7.83;100.00;98336.38;5024055;28;20039;-81
2021/03/10 11:08:57;;;;;;;0.10;0.10;;;;;;;7.86;100.00;98336.13;5023641;28;20047;-80
2021/03/10 11:12:00;;;;;;;0.85;0.47;;;;;;;7.90;100.00;98330.38;5023188;28;20040;-81
2021/03/10 11:15:05;;;;;;;6.03;0.30;;;;;;;7.89;100.00;98318.53;5027583;28;20032;-80
2021/03/10 11:18:09;;;;;;;0.82;0.57;;;;;;;7.94;100.00;98309.50;5045245;28;20056;-81
2021/03/10 11:21:13;;;;;;;0.25;0.22;;;;;;;7.95;100.00;98311.00;5027930;28;20040;-80
2021/03/10 11:24:17;;;;;;;0.32;0.32;;;;;;;8.00;100.00;98317.84;5023082;28;20048;-81
2021/03/10 11:27:22;;;;;;;0.50;0.50;;;;;;;8.04;100.00;98312.81;5022286;28;20036;-81
2021/03/10 11:30:25;;;;;;;0.40;0.40;;;;;;;8.15;100.00;98297.00;5035117;28;21177;-82
2021/03/10 11:33:29;;;;;;;1.00;0.47;;;;;;;8.16;100.00;98295.78;5022753;28;20036;-81
2021/03/10 11:36:32;;;;;;;0.35;0.30;;;;;;;8.21;100.00;98280.38;5021452;28;20056;-81
2021/03/10 11:39:36;;;;;;;0.10;0.10;;;;;;;8.28;100.00;98274.41;5021706;28;20448;-82
2021/03/10 11:42:40;;;;;;;0.88;0.70;;;;;;;8.29;100.00;98268.34;5021575;28;20044;-82
2021/03/10 11:45:44;;;;;;;2.28;0.22;;;;;;;8.32;100.00;98272.16;5022694;28;20429;-82
2021/03/10 11:48:47;;;;;;;1.15;0.55;;;;;;;8.37;100.00;98274.19;5024188;28;20059;-80
2021/03/10 11:51:51;;;;;;;0.40;0.20;;;;;;;8.36;100.00;98256.03;5028205;28;20500;-79
2021/03/10 11:54:55;;;;;;;3.47;0.77;;;;;;;8.39;100.00;98255.03;5025218;28;20031;-83
2021/03/10 11:57:59;;;;;;;3.05;0.52;;;;;;;8.38;100.00;98253.53;5027314;28;20299;-81
2021/03/10 12:01:03;;;;;;;7.55;1.65;;;;;;;8.38;100.00;98254.25;5037181;28;20067;-81
2021/03/10 12:04:07;;;;;;;6.60;1.95;;;;;;;8.39;100.00;98252.25;5025153;28;20524;-79
2021/03/10 12:07:10;;;;;;;10.65;1.83;;;;;;;8.42;100.00;98244.97;5024471;28;20044;-80
2021/03/10 12:10:16;;;;;;;6.90;1.95;;;;;;;8.47;100.00;98233.88;5036202;28;20063;-80
2021/03/10 12:13:19;;;;;;;5.63;1.17;;;;;;;8.45;100.00;98236.38;5023524;28;20036;-80
2021/03/10 12:16:23;;;;;;;5.47;0.85;;;;;;;8.46;100.00;98237.91;5024375;28;20051;-79
2021/03/10 12:19:27;;;;;;;5.00;1.02;;;;;;;8.46;100.00;98237.91;5026017;28;20051;-82
2021/03/10 12:22:31;;;;;;;1.73;0.93;;;;;;;8.45;100.00;98236.38;5024885;28;20063;-81
2021/03/10 12:25:34;;;;;;;1.55;0.40;;;;;;;8.44;100.00;98229.34;5023750;28;20247;-81
2021/03/10 12:28:37;;;;;;;0.43;0.40;;;;;;;8.49;100.00;98225.78;5024238;28;20047;-81
2021/03/10 12:31:41;;;;;;;1.02;0.65;;;;;;;8.46;100.00;98210.16;5025116;28;20047;-84
2021/03/10 12:34:45;;;;;;;2.05;0.50;;;;;;;8.44;100.00;98190.50;5022865;28;20059;-84
2021/03/10 12:37:49;;;;;;;0.40;0.40;;;;;;;8.44;100.00;98168.31;5022231;28;20237;-89
2021/03/10 12:40:53;;;;;;;0.73;0.55;;;;;;;8.42;100.00;98154.19;5035758;28;20047;-87
2021/03/10 12:43:57;;;;;;;0.10;0.10;;;;;;;8.49;100.00;98120.38;5036303;28;20127;-87
2021/03/10 12:47:00;;;;;;;0.52;0.40;;;;;;;8.50;100.00;98127.44;5024049;28;20047;-88
2021/03/10 12:50:04;;;;;;;1.35;0.40;;;;;;;8.48;100.00;98107.78;5024552;28;20453;-87
2021/03/10 12:53:08;;;;;;;3.63;1.08;;;;;;;8.58;100.00;98116.59;5025657;28;20059;-86
2021/03/10 12:56:12;;;;;;;3.78;1.10;;;;;;;8.59;100.00;98141.09;5034960;28;20450;-86
2021/03/10 12:59:16;;;;;;;2.28;0.90;;;;;;;8.57;100.00;98149.16;5033385;28;20452;-84
2021/03/10 13:02:19;;;;;;;3.55;0.30;;;;;;;8.59;100.00;98124.44;5019542;28;20043;-87
2021/03/10 13:05:24;;;;;;;1.75;0.32;;;;;;;8.63;100.00;98113.84;5033514;28;20043;-85
2021/03/10 13:08:27;;;;;;;0.30;0.20;;;;;;;8.62;100.00;98106.75;5021496;28;20052;-84
2021/03/10 13:11:32;;;;;;;0.40;0.35;;;;;;;8.64;100.00;98106.28;5034057;28;20619;-85
2021/03/10 13:14:35;;;;;;;0.65;0.38;;;;;;;8.62;100.00;98106.75;5018679;28;20035;-84
2021/03/10 13:17:39;;;;;;;3.45;0.77;;;;;;;8.62;100.00;98095.66;5020167;28;20378;-91
2021/03/10 13:20:42;;;;;;;0.20;0.20;;;;;;;8.60;100.00;98097.47;5025907;28;20642;-87
2021/03/10 13:23:47;;;;;;;2.28;0.70;;;;;;;8.59;100.00;98101.47;5037049;28;20052;-87
2021/03/10 13:26:51;;;;;;;1.55;0.32;;;;;;;8.59;100.00;98091.16;5022049;28;20036;-86
2021/03/10 13:29:54;;;;;;;1.95;0.55;;;;;;;8.63;100.00;98085.34;5027356;28;20703;-88
2021/03/10 13:32:57;;;;;;;0.38;0.38;;;;;;;8.59;100.00;98080.03;5045803;28;20047;-86
2021/03/10 13:36:01;;;;;;;0.20;0.20;;;;;;;8.59;100.00;98066.16;5030510;28;20047;-88
2021/03/10 13:39:06;;;;;;;0.35;0.30;;;;;;;8.60;100.00;98064.91;5032567;28;20044;-89
2021/03/10 13:42:09;;;;;;;1.50;0.73;;;;;;;8.58;100.00;98052.78;5044927;28;20215;-89
2021/03/10 13:45:15;;;;;;;1.58;0.60;;;;;;;8.54;100.00;98039.19;5048910;28;20051;-93
2021/03/10 13:48:21;;;;;;;2.63;0.30;;;;;;;8.52;100.00;98019.50;5037389;28;20303;-89
2021/03/10 13:51:25;;;;;;;0.20;0.20;;;;;;;8.54;100.00;98000.34;5034949;28;20516;-87
2021/03/10 13:54:30;;;;;;;0.20;0.20;;;;;;;8.53;100.00;97957.22;5038799;28;20709;-86
2021/03/10 13:57:33;;;;;;;0.82;0.20;;;;;;;8.52;100.00;97974.38;5040521;28;20059;-89
2021/03/10 14:00:38;;;;;;;0.20;0.20;;;;;;;8.53;100.00;97992.53;5035214;28;20043;-86
2021/03/10 14:03:43;;;;;;;0.57;0.10;;;;;;;8.52;100.00;97996.56;5034515;28;20405;-88
2021/03/10 14:06:47;;;;;;;0.20;0.20;;;;;;;8.51;100.00;98001.34;5040775;28;20039;-91
2021/03/10 14:09:51;;;;;;;1.30;0.30;;;;;;;8.52;100.00;97985.47;5041081;28;20748;-88
2021/03/10 14:12:55;;;;;;;0.70;0.30;;;;;;;8.54;100.00;97974.63;5041763;28;20325;-88
2021/03/10 14:15:58;;;;;;;1.35;0.32;;;;;;;8.56;100.00;97970.06;5044572;28;20043;-86
2021/03/10 14:19:02;;;;;;;0.28;0.20;;;;;;;8.59;100.00;97962.75;5048806;28;20051;-91
2021/03/10 14:22:07;;;;;;;0.73;0.30;;;;;;;8.59;100.00;97955.19;5059454;28;20106;-92
2021/03/10 14:25:13;;;;;;;2.58;0.55;;;;;;;8.61;100.00;97944.34;5037565;28;20068;-84
2021/03/10 14:28:19;;;;;;;1.10;0.45;;;;;;;8.59;100.00;97921.91;5034214;28;20709;-86
2021/03/10 14:31:23;;;;;;;1.38;0.73;;;;;;;8.63;100.00;97894.66;5036590;28;20524;-86
2021/03/10 14:34:27;;;;;;;0.30;0.28;;;;;;;8.66;100.00;97912.31;5031528;28;20058;-84